sensor_id;sensor_type;location;lat;lon;timestamp;pressure;altitude;pressure_sealevel;temperature;humidity
13593;BME280;6867;50.998;4.250;2023-04-26T00:01:55;101595.78;;;4.69;71.09
13593;BME280;6867;50.998;4.250;2023-04-26T00:04:24;101601.13;;;4.59;70.84
13593;BME280;6867;50.998;4.250;2023-04-26T00:06:53;101614.13;;;4.44;71.25
13593;BME280;6867;50.998;4.250;2023-04-26T00:09:20;101612.84;;;4.39;71.42
13593;BME280;6867;50.998;4.250;2023-04-26T00:11:46;101610.91;;;4.41;71.98
13593;BME280;6867;50.998;4.250;2023-04-26T00:14:13;101619.50;;;4.35;72.02
13593;BME280;6867;50.998;4.250;2023-04-26T00:16:40;101613.00;;;4.37;71.94
13593;BME280;6867;50.998;4.250;2023-04-26T00:19:06;101608.50;;;4.47;72.09
13593;BME280;6867;50.998;4.250;2023-04-26T00:21:36;101605.75;;;4.39;72.18
13593;BME280;6867;50.998;4.250;2023-04-26T00:24:03;101608.25;;;4.41;72.16
13593;BME280;6867;50.998;4.250;2023-04-26T00:26:30;101618.88;;;4.41;72.45
13593;BME280;6867;50.998;4.250;2023-04-26T00:28:58;101629.63;;;4.49;72.32
13593;BME280;6867;50.998;4.250;2023-04-26T00:31:25;101627.81;;;4.49;72.43
13593;BME280;6867;50.998;4.250;2023-04-26T00:33:52;101628.19;;;4.55;72.53
13593;BME280;6867;50.998;4.250;2023-04-26T00:36:18;101629.19;;;4.54;72.76
13593;BME280;6867;50.998;4.250;2023-04-26T00:38:46;101630.84;;;4.55;72.69
13593;BME280;6867;50.998;4.250;2023-04-26T00:41:13;101622.94;;;4.45;73.01
13593;BME280;6867;50.998;4.250;2023-04-26T00:43:40;101625.75;;;4.43;72.52
13593;BME280;6867;50.998;4.250;2023-04-26T00:46:07;101620.28;;;4.45;72.17
13593;BME280;6867;50.998;4.250;2023-04-26T00:48:35;101608.25;;;4.41;72.88
13593;BME280;6867;50.998;4.250;2023-04-26T00:51:03;101621.03;;;4.28;73.08
13593;BME280;6867;50.998;4.250;2023-04-26T00:53:30;101628.19;;;4.27;73.22
13593;BME280;6867;50.998;4.250;2023-04-26T00:55:59;101613.63;;;4.31;73.21
13593;BME280;6867;50.998;4.250;2023-04-26T00:58:27;101623.81;;;4.26;72.76
13593;BME280;6867;50.998;4.250;2023-04-26T01:00:55;101615.47;;;4.21;72.76
13593;BME280;6867;50.998;4.250;2023-04-26T01:03:21;101617.28;;;4.20;72.79
13593;BME280;6867;50.998;4.250;2023-04-26T01:05:48;101616.88;;;4.15;72.69
13593;BME280;6867;50.998;4.250;2023-04-26T01:08:15;101622.47;;;4.12;72.10
13593;BME280;6867;50.998;4.250;2023-04-26T01:10:45;101610.63;;;4.07;72.26
13593;BME280;6867;50.998;4.250;2023-04-26T01:13:14;101609.50;;;3.99;72.16
13593;BME280;6867;50.998;4.250;2023-04-26T01:15:43;101613.16;;;3.98;72.49
13593;BME280;6867;50.998;4.250;2023-04-26T01:18:10;101621.25;;;3.97;72.27
13593;BME280;6867;50.998;4.250;2023-04-26T01:20:38;101625.47;;;3.99;72.85
13593;BME280;6867;50.998;4.250;2023-04-26T01:23:07;101614.56;;;3.93;72.85
13593;BME280;6867;50.998;4.250;2023-04-26T01:25:34;101625.94;;;3.85;72.98
13593;BME280;6867;50.998;4.250;2023-04-26T01:28:01;101619.91;;;3.83;72.51
13593;BME280;6867;50.998;4.250;2023-04-26T01:30:28;101617.66;;;3.79;72.32
13593;BME280;6867;50.998;4.250;2023-04-26T01:32:55;101609.69;;;3.79;72.42
13593;BME280;6867;50.998;4.250;2023-04-26T01:35:21;101617.66;;;3.79;72.63
13593;BME280;6867;50.998;4.250;2023-04-26T01:37:48;101621.31;;;3.78;72.40
13593;BME280;6867;50.998;4.250;2023-04-26T01:40:16;101625.91;;;3.75;72.52
13593;BME280;6867;50.998;4.250;2023-04-26T01:42:43;101630.56;;;3.64;72.70
13593;BME280;6867;50.998;4.250;2023-04-26T01:45:10;101624.41;;;3.73;73.13
13593;BME280;6867;50.998;4.250;2023-04-26T01:47:37;101614.47;;;3.65;72.68
13593;BME280;6867;50.998;4.250;2023-04-26T01:50:04;101630.16;;;3.68;72.92
13593;BME280;6867;50.998;4.250;2023-04-26T01:52:31;101622.59;;;3.64;72.91
13593;BME280;6867;50.998;4.250;2023-04-26T01:54:58;101616.56;;;3.62;72.52
13593;BME280;6867;50.998;4.250;2023-04-26T01:57:26;101605.53;;;3.66;72.62
13593;BME280;6867;50.998;4.250;2023-04-26T01:59:52;101603.69;;;3.67;72.44
13593;BME280;6867;50.998;4.250;2023-04-26T02:02:21;101600.34;;;3.65;73.32
13593;BME280;6867;50.998;4.250;2023-04-26T02:04:47;101587.91;;;3.65;73.08
13593;BME280;6867;50.998;4.250;2023-04-26T02:07:14;101593.38;;;3.64;72.85
13593;BME280;6867;50.998;4.250;2023-04-26T02:09:41;101591.28;;;3.58;72.21
13593;BME280;6867;50.998;4.250;2023-04-26T02:12:07;101585.28;;;3.56;72.62
13593;BME280;6867;50.998;4.250;2023-04-26T02:14:35;101586.94;;;3.57;72.97
13593;BME280;6867;50.998;4.250;2023-04-26T02:17:02;101589.59;;;3.57;72.69
13593;BME280;6867;50.998;4.250;2023-04-26T02:19:30;101595.03;;;3.55;73.34
13593;BME280;6867;50.998;4.250;2023-04-26T02:21:57;101588.75;;;3.66;73.17
13593;BME280;6867;50.998;4.250;2023-04-26T02:24:24;101587.34;;;3.62;72.55
13593;BME280;6867;50.998;4.250;2023-04-26T02:26:51;101574.09;;;3.52;72.64
13593;BME280;6867;50.998;4.250;2023-04-26T02:29:18;101579.41;;;3.42;72.67
13593;BME280;6867;50.998;4.250;2023-04-26T02:31:46;101578.31;;;3.35;72.38
13593;BME280;6867;50.998;4.250;2023-04-26T02:34:14;101593.53;;;3.33;73.52
13593;BME280;6867;50.998;4.250;2023-04-26T02:36:41;101584.28;;;3.37;73.44
13593;BME280;6867;50.998;4.250;2023-04-26T02:39:07;101575.66;;;3.35;72.60
13593;BME280;6867;50.998;4.250;2023-04-26T02:41:34;101581.63;;;3.37;73.07
13593;BME280;6867;50.998;4.250;2023-04-26T02:44:01;101582.91;;;3.43;73.51
13593;BME280;6867;50.998;4.250;2023-04-26T02:46:27;101597.72;;;3.45;73.03
13593;BME280;6867;50.998;4.250;2023-04-26T02:48:55;101594.19;;;3.55;73.16
13593;BME280;6867;50.998;4.250;2023-04-26T02:51:22;101586.22;;;3.55;72.66
13593;BME280;6867;50.998;4.250;2023-04-26T02:53:49;101578.81;;;3.58;73.26
13593;BME280;6867;50.998;4.250;2023-04-26T02:56:15;101573.50;;;3.58;73.25
13593;BME280;6867;50.998;4.250;2023-04-26T02:58:42;101591.41;;;3.66;72.99
13593;BME280;6867;50.998;4.250;2023-04-26T03:01:08;101596.13;;;3.72;72.99
13593;BME280;6867;50.998;4.250;2023-04-26T03:03:36;101596.56;;;3.77;73.86
13593;BME280;6867;50.998;4.250;2023-04-26T03:06:05;101596.41;;;3.79;73.70
13593;BME280;6867;50.998;4.250;2023-04-26T03:08:32;101600.75;;;3.80;73.78
13593;BME280;6867;50.998;4.250;2023-04-26T03:10:59;101592.09;;;3.78;73.60
13593;BME280;6867;50.998;4.250;2023-04-26T03:13:26;101590.13;;;3.70;73.08
13593;BME280;6867;50.998;4.250;2023-04-26T03:15:52;101585.50;;;3.72;73.68
13593;BME280;6867;50.998;4.250;2023-04-26T03:18:19;101588.31;;;3.70;73.67
13593;BME280;6867;50.998;4.250;2023-04-26T03:20:46;101592.78;;;3.70;73.66
13593;BME280;6867;50.998;4.250;2023-04-26T03:23:14;101592.63;;;3.71;73.32
13593;BME280;6867;50.998;4.250;2023-04-26T03:25:40;101590.41;;;3.67;73.75
13593;BME280;6867;50.998;4.250;2023-04-26T03:28:07;101590.53;;;3.75;73.23
13593;BME280;6867;50.998;4.250;2023-04-26T03:30:34;101586.22;;;3.74;72.74
13593;BME280;6867;50.998;4.250;2023-04-26T03:33:00;101575.19;;;3.69;73.40
13593;BME280;6867;50.998;4.250;2023-04-26T03:35:27;101579.66;;;3.68;73.67
13593;BME280;6867;50.998;4.250;2023-04-26T03:37:54;101569.03;;;3.68;72.93
13593;BME280;6867;50.998;4.250;2023-04-26T03:40:22;101558.53;;;3.67;73.08
13593;BME280;6867;50.998;4.250;2023-04-26T03:42:48;101567.09;;;3.61;72.64
13593;BME280;6867;50.998;4.250;2023-04-26T03:45:16;101575.06;;;3.61;73.14
13593;BME280;6867;50.998;4.250;2023-04-26T03:47:42;101564.69;;;3.58;73.10
13593;BME280;6867;50.998;4.250;2023-04-26T03:50:09;101566.97;;;3.53;73.28
13593;BME280;6867;50.998;4.250;2023-04-26T03:52:36;101570.88;;;3.48;73.10
13593;BME280;6867;50.998;4.250;2023-04-26T03:55:03;101561.91;;;3.49;73.30
13593;BME280;6867;50.998;4.250;2023-04-26T03:57:32;101565.28;;;3.42;73.13
13593;BME280;6867;50.998;4.250;2023-04-26T03:59:58;101568.09;;;3.40;73.27
13593;BME280;6867;50.998;4.250;2023-04-26T04:02:25;101568.50;;;3.45;73.39
13593;BME280;6867;50.998;4.250;2023-04-26T04:04:51;101567.38;;;3.48;73.68
13593;BME280;6867;50.998;4.250;2023-04-26T04:07:18;101565.72;;;3.47;73.19
13593;BME280;6867;50.998;4.250;2023-04-26T04:09:45;101568.38;;;3.47;73.82
13593;BME280;6867;50.998;4.250;2023-04-26T04:12:12;101580.38;;;3.51;73.44
13593;BME280;6867;50.998;4.250;2023-04-26T04:14:40;101584.72;;;3.52;73.46
13593;BME280;6867;50.998;4.250;2023-04-26T04:17:07;101597.81;;;3.63;73.84
13593;BME280;6867;50.998;4.250;2023-04-26T04:19:34;101601.44;;;3.82;73.73
13593;BME280;6867;50.998;4.250;2023-04-26T04:22:00;101592.31;;;3.94;74.40
13593;BME280;6867;50.998;4.250;2023-04-26T04:24:27;101596.06;;;4.01;74.39
13593;BME280;6867;50.998;4.250;2023-04-26T04:26:54;101592.13;;;4.05;74.58
13593;BME280;6867;50.998;4.250;2023-04-26T04:29:21;101602.19;;;4.11;74.16
13593;BME280;6867;50.998;4.250;2023-04-26T04:31:49;101590.72;;;4.11;74.55
13593;BME280;6867;50.998;4.250;2023-04-26T04:34:16;101606.38;;;4.14;74.50
13593;BME280;6867;50.998;4.250;2023-04-26T04:36:43;101585.66;;;4.17;74.40
13593;BME280;6867;50.998;4.250;2023-04-26T04:39:10;101577.53;;;4.19;73.80
13593;BME280;6867;50.998;4.250;2023-04-26T04:41:40;101592.94;;;4.15;73.92
13593;BME280;6867;50.998;4.250;2023-04-26T04:44:12;101600.22;;;4.23;74.92
13593;BME280;6867;50.998;4.250;2023-04-26T04:46:40;101609.84;;;4.24;75.03
13593;BME280;6867;50.998;4.250;2023-04-26T04:49:08;101613.00;;;4.37;75.29
13593;BME280;6867;50.998;4.250;2023-04-26T04:51:35;101620.66;;;4.50;75.51
13593;BME280;6867;50.998;4.250;2023-04-26T04:54:08;101628.16;;;4.64;75.26
13593;BME280;6867;50.998;4.250;2023-04-26T04:56:35;101620.59;;;4.60;74.77
13593;BME280;6867;50.998;4.250;2023-04-26T04:59:02;101625.19;;;4.67;75.75
13593;BME280;6867;50.998;4.250;2023-04-26T05:01:30;101629.28;;;4.89;74.80
13593;BME280;6867;50.998;4.250;2023-04-26T05:03:56;101626.19;;;4.94;75.55
13593;BME280;6867;50.998;4.250;2023-04-26T05:06:26;101620.78;;;5.04;75.20
13593;BME280;6867;50.998;4.250;2023-04-26T05:08:53;101621.25;;;5.17;74.76
13593;BME280;6867;50.998;4.250;2023-04-26T05:11:20;101625.19;;;5.31;74.78
13593;BME280;6867;50.998;4.250;2023-04-26T05:13:47;101608.84;;;5.25;73.86
13593;BME280;6867;50.998;4.250;2023-04-26T05:16:14;101618.38;;;5.28;74.49
13593;BME280;6867;50.998;4.250;2023-04-26T05:18:42;101621.72;;;5.48;74.39
13593;BME280;6867;50.998;4.250;2023-04-26T05:21:08;101615.69;;;5.46;73.96
13593;BME280;6867;50.998;4.250;2023-04-26T05:23:36;101617.97;;;5.41;74.41
13593;BME280;6867;50.998;4.250;2023-04-26T05:26:03;101625.44;;;5.37;74.02
13593;BME280;6867;50.998;4.250;2023-04-26T05:28:30;101630.47;;;5.40;74.31
13593;BME280;6867;50.998;4.250;2023-04-26T05:30:57;101642.00;;;5.67;74.65
13593;BME280;6867;50.998;4.250;2023-04-26T05:33:25;101630.81;;;5.63;73.79
13593;BME280;6867;50.998;4.250;2023-04-26T05:35:53;101641.22;;;5.92;74.38
13593;BME280;6867;50.998;4.250;2023-04-26T05:38:22;101625.59;;;5.97;73.85
13593;BME280;6867;50.998;4.250;2023-04-26T05:40:50;101640.13;;;6.29;73.35
13593;BME280;6867;50.998;4.250;2023-04-26T05:43:17;101652.97;;;6.60;73.62
13593;BME280;6867;50.998;4.250;2023-04-26T05:45:49;101673.84;;;7.07;73.29
13593;BME280;6867;50.998;4.250;2023-04-26T05:48:16;101667.19;;;7.27;73.21
13593;BME280;6867;50.998;4.250;2023-04-26T05:50:43;101665.75;;;7.49;72.49
13593;BME280;6867;50.998;4.250;2023-04-26T05:53:10;101652.22;;;7.59;72.40
13593;BME280;6867;50.998;4.250;2023-04-26T05:55:36;101666.59;;;7.74;72.72
13593;BME280;6867;50.998;4.250;2023-04-26T05:58:05;101652.72;;;7.70;72.58
13593;BME280;6867;50.998;4.250;2023-04-26T06:00:32;101651.19;;;7.92;71.80
13593;BME280;6867;50.998;4.250;2023-04-26T06:02:58;101666.06;;;8.11;72.16
13593;BME280;6867;50.998;4.250;2023-04-26T06:05:25;101645.97;;;8.23;71.27
13593;BME280;6867;50.998;4.250;2023-04-26T06:07:52;101636.91;;;8.49;70.50
13593;BME280;6867;50.998;4.250;2023-04-26T06:10:19;101613.91;;;8.63;69.75
13593;BME280;6867;50.998;4.250;2023-04-26T06:12:46;101609.50;;;8.78;69.27
13593;BME280;6867;50.998;4.250;2023-04-26T06:15:14;101635.44;;;9.09;69.22
13593;BME280;6867;50.998;4.250;2023-04-26T06:17:41;101641.66;;;9.32;69.01
13593;BME280;6867;50.998;4.250;2023-04-26T06:20:09;101644.59;;;9.45;69.51
13593;BME280;6867;50.998;4.250;2023-04-26T06:22:36;101583.09;;;9.21;67.16
13593;BME280;6867;50.998;4.250;2023-04-26T06:25:04;101566.19;;;9.20;66.39
13593;BME280;6867;50.998;4.250;2023-04-26T06:27:31;101597.25;;;9.53;67.34
13593;BME280;6867;50.998;4.250;2023-04-26T06:29:58;101616.63;;;9.78;67.14
13593;BME280;6867;50.998;4.250;2023-04-26T06:32:26;101622.72;;;10.09;67.40
13593;BME280;6867;50.998;4.250;2023-04-26T06:34:53;101525.50;;;9.55;64.33
13593;BME280;6867;50.998;4.250;2023-04-26T06:37:19;101550.03;;;9.81;65.32
13593;BME280;6867;50.998;4.250;2023-04-26T06:39:46;101534.84;;;9.59;64.82
13593;BME280;6867;50.998;4.250;2023-04-26T06:42:13;101540.59;;;9.85;64.40
13593;BME280;6867;50.998;4.250;2023-04-26T06:44:39;101519.13;;;9.85;63.87
13593;BME280;6867;50.998;4.250;2023-04-26T06:47:06;101511.88;;;9.56;64.19
13593;BME280;6867;50.998;4.250;2023-04-26T06:49:35;101518.75;;;9.73;63.47
13593;BME280;6867;50.998;4.250;2023-04-26T06:52:02;101516.81;;;10.12;63.75
13593;BME280;6867;50.998;4.250;2023-04-26T06:54:31;101512.63;;;10.24;62.98
13593;BME280;6867;50.998;4.250;2023-04-26T06:56:58;101525.69;;;10.42;63.12
13593;BME280;6867;50.998;4.250;2023-04-26T06:59:25;101546.28;;;10.71;62.94
13593;BME280;6867;50.998;4.250;2023-04-26T07:01:51;101492.94;;;10.89;61.00
13593;BME280;6867;50.998;4.250;2023-04-26T07:04:18;101451.31;;;11.07;60.20
13593;BME280;6867;50.998;4.250;2023-04-26T07:06:46;101441.59;;;11.34;59.43
13593;BME280;6867;50.998;4.250;2023-04-26T07:09:13;101487.34;;;11.34;60.16
13593;BME280;6867;50.998;4.250;2023-04-26T07:11:39;101464.28;;;11.53;59.13
13593;BME280;6867;50.998;4.250;2023-04-26T07:14:06;101420.69;;;11.64;57.79
13593;BME280;6867;50.998;4.250;2023-04-26T07:16:33;101408.75;;;11.45;57.75
13593;BME280;6867;50.998;4.250;2023-04-26T07:18:59;101413.47;;;11.71;57.05
13593;BME280;6867;50.998;4.250;2023-04-26T07:21:26;101416.00;;;11.44;57.01
13593;BME280;6867;50.998;4.250;2023-04-26T07:23:55;101401.03;;;12.05;56.24
13593;BME280;6867;50.998;4.250;2023-04-26T07:26:22;101398.97;;;11.31;56.85
13593;BME280;6867;50.998;4.250;2023-04-26T07:28:49;101381.28;;;11.50;56.04
13593;BME280;6867;50.998;4.250;2023-04-26T07:31:16;101392.16;;;12.24;55.25
13593;BME280;6867;50.998;4.250;2023-04-26T07:33:43;101398.69;;;12.76;54.58
13593;BME280;6867;50.998;4.250;2023-04-26T07:36:09;101385.78;;;13.31;53.35
13593;BME280;6867;50.998;4.250;2023-04-26T07:38:36;101284.19;;;12.06;52.72
13593;BME280;6867;50.998;4.250;2023-04-26T07:41:04;101309.88;;;13.01;52.22
13593;BME280;6867;50.998;4.250;2023-04-26T07:43:31;101307.31;;;13.39;51.28
13593;BME280;6867;50.998;4.250;2023-04-26T07:45:58;101275.25;;;13.63;50.29
13593;BME280;6867;50.998;4.250;2023-04-26T07:48:26;101279.84;;;12.84;51.52
13593;BME280;6867;50.998;4.250;2023-04-26T07:50:53;101256.38;;;12.91;50.56
13593;BME280;6867;50.998;4.250;2023-04-26T07:53:20;101272.72;;;13.23;50.32
13593;BME280;6867;50.998;4.250;2023-04-26T07:55:48;101262.97;;;13.67;49.73
13593;BME280;6867;50.998;4.250;2023-04-26T07:58:17;101237.72;;;13.86;48.80
13593;BME280;6867;50.998;4.250;2023-04-26T08:00:43;101224.88;;;13.82;48.38
13593;BME280;6867;50.998;4.250;2023-04-26T08:03:10;101187.63;;;13.90;47.13
13593;BME280;6867;50.998;4.250;2023-04-26T08:05:37;101219.53;;;14.25;47.15
13593;BME280;6867;50.998;4.250;2023-04-26T08:08:04;101148.03;;;14.28;46.09
13593;BME280;6867;50.998;4.250;2023-04-26T08:10:31;101128.78;;;14.79;44.50
13593;BME280;6867;50.998;4.250;2023-04-26T08:12:57;101133.53;;;14.65;45.30
13593;BME280;6867;50.998;4.250;2023-04-26T08:15:28;101134.78;;;14.63;45.40
13593;BME280;6867;50.998;4.250;2023-04-26T08:17:56;101148.34;;;14.38;45.36
13593;BME280;6867;50.998;4.250;2023-04-26T08:20:23;101147.50;;;14.37;45.41
13593;BME280;6867;50.998;4.250;2023-04-26T08:22:54;101199.47;;;14.39;46.24
13593;BME280;6867;50.998;4.250;2023-04-26T08:25:21;101168.91;;;14.82;45.01
13593;BME280;6867;50.998;4.250;2023-04-26T08:27:48;101108.25;;;15.20;43.74
13593;BME280;6867;50.998;4.250;2023-04-26T08:30:15;101148.00;;;14.71;44.84
13593;BME280;6867;50.998;4.250;2023-04-26T08:32:43;101204.63;;;14.23;46.74
13593;BME280;6867;50.998;4.250;2023-04-26T08:35:11;101080.41;;;13.73;45.23
13593;BME280;6867;50.998;4.250;2023-04-26T08:37:37;101142.16;;;14.74;44.18
13593;BME280;6867;50.998;4.250;2023-04-26T08:40:06;101130.50;;;14.74;44.00
13593;BME280;6867;50.998;4.250;2023-04-26T08:42:38;101060.31;;;14.30;43.66
13593;BME280;6867;50.998;4.250;2023-04-26T08:45:06;101073.41;;;15.54;41.91
13593;BME280;6867;50.998;4.250;2023-04-26T08:47:39;100998.91;;;16.38;39.46
13593;BME280;6867;50.998;4.250;2023-04-26T08:50:10;100965.84;;;15.84;39.61
13593;BME280;6867;50.998;4.250;2023-04-26T08:52:39;101006.25;;;15.20;41.15
13593;BME280;6867;50.998;4.250;2023-04-26T08:55:07;101063.28;;;14.77;43.01
13593;BME280;6867;50.998;4.250;2023-04-26T08:57:35;101062.41;;;14.65;42.77
13593;BME280;6867;50.998;4.250;2023-04-26T09:00:02;101047.81;;;14.29;42.86
13593;BME280;6867;50.998;4.250;2023-04-26T09:02:34;101013.28;;;14.68;41.98
13593;BME280;6867;50.998;4.250;2023-04-26T09:05:01;101000.66;;;15.45;40.31
13593;BME280;6867;50.998;4.250;2023-04-26T09:07:32;100999.59;;;16.05;39.21
13593;BME280;6867;50.998;4.250;2023-04-26T09:10:03;100959.34;;;15.85;38.70
13593;BME280;6867;50.998;4.250;2023-04-26T09:12:30;100964.09;;;16.30;38.44
13593;BME280;6867;50.998;4.250;2023-04-26T09:14:57;101010.09;;;15.66;39.93
13593;BME280;6867;50.998;4.250;2023-04-26T09:17:26;100970.16;;;15.62;39.52
13593;BME280;6867;50.998;4.250;2023-04-26T09:19:55;101049.31;;;16.63;38.85
13593;BME280;6867;50.998;4.250;2023-04-26T09:22:34;100932.38;;;15.79;38.59
13593;BME280;6867;50.998;4.250;2023-04-26T09:25:03;101020.59;;;15.98;39.39
13593;BME280;6867;50.998;4.250;2023-04-26T09:27:33;100978.50;;;16.07;38.86
13593;BME280;6867;50.998;4.250;2023-04-26T09:30:03;100961.94;;;15.57;39.28
13593;BME280;6867;50.998;4.250;2023-04-26T09:32:54;100970.25;;;16.42;37.63
13593;BME280;6867;50.998;4.250;2023-04-26T09:35:25;100914.97;;;15.75;38.29
13593;BME280;6867;50.998;4.250;2023-04-26T09:37:58;101008.72;;;16.39;38.38
13593;BME280;6867;50.998;4.250;2023-04-26T09:40:27;100888.22;;;16.47;36.41
13593;BME280;6867;50.998;4.250;2023-04-26T09:43:02;100952.75;;;17.41;36.17
13593;BME280;6867;50.998;4.250;2023-04-26T09:45:30;100870.16;;;17.20;34.92
13593;BME280;6867;50.998;4.250;2023-04-26T09:48:12;100819.38;;;16.99;34.59
13593;BME280;6867;50.998;4.250;2023-04-26T09:50:41;100983.31;;;16.86;37.31
13593;BME280;6867;50.998;4.250;2023-04-26T09:53:09;100869.78;;;16.95;35.34
13593;BME280;6867;50.998;4.250;2023-04-26T09:55:37;100972.38;;;17.82;35.76
13593;BME280;6867;50.998;4.250;2023-04-26T09:58:08;100852.44;;;16.33;36.11
13593;BME280;6867;50.998;4.250;2023-04-26T10:00:37;100848.44;;;15.67;36.71
13593;BME280;6867;50.998;4.250;2023-04-26T10:03:06;100997.03;;;15.99;38.73
13593;BME280;6867;50.998;4.250;2023-04-26T10:05:33;101004.25;;;16.33;38.63
13593;BME280;6867;50.998;4.250;2023-04-26T10:08:01;100980.59;;;16.57;37.39
13593;BME280;6867;50.998;4.250;2023-04-26T10:10:30;100897.66;;;16.90;35.67
13593;BME280;6867;50.998;4.250;2023-04-26T10:12:57;100873.44;;;17.61;34.36
13593;BME280;6867;50.998;4.250;2023-04-26T10:15:24;100895.25;;;17.66;34.63
13593;BME280;6867;50.998;4.250;2023-04-26T10:17:51;100890.94;;;17.48;34.92
13593;BME280;6867;50.998;4.250;2023-04-26T10:20:19;100883.09;;;16.79;35.94
13593;BME280;6867;50.998;4.250;2023-04-26T10:22:51;100900.88;;;16.58;36.15
13593;BME280;6867;50.998;4.250;2023-04-26T10:25:18;100900.97;;;16.63;36.20
13593;BME280;6867;50.998;4.250;2023-04-26T10:27:50;100808.66;;;17.09;34.19
13593;BME280;6867;50.998;4.250;2023-04-26T10:30:21;100948.53;;;17.33;35.43
13593;BME280;6867;50.998;4.250;2023-04-26T10:33:14;100825.06;;;16.97;34.65
13593;BME280;6867;50.998;4.250;2023-04-26T10:36:01;100805.56;;;16.66;34.38
13593;BME280;6867;50.998;4.250;2023-04-26T10:38:28;100826.28;;;18.16;32.61
13593;BME280;6867;50.998;4.250;2023-04-26T10:40:55;100870.56;;;17.29;35.14
13593;BME280;6867;50.998;4.250;2023-04-26T10:43:43;100877.25;;;18.31;33.40
13593;BME280;6867;50.998;4.250;2023-04-26T10:46:37;100870.59;;;17.89;34.17
13593;BME280;6867;50.998;4.250;2023-04-26T10:49:17;100860.84;;;17.94;34.11
13593;BME280;6867;50.998;4.250;2023-04-26T10:52:12;100748.28;;;17.40;33.18
13593;BME280;6867;50.998;4.250;2023-04-26T10:54:51;100799.13;;;17.72;33.46
13593;BME280;6867;50.998;4.250;2023-04-26T10:57:19;100765.31;;;17.14;33.77
13593;BME280;6867;50.998;4.250;2023-04-26T11:00:24;100724.91;;;16.96;33.30
13593;BME280;6867;50.998;4.250;2023-04-26T11:03:12;100783.81;;;16.78;33.68
13593;BME280;6867;50.998;4.250;2023-04-26T11:05:54;100778.75;;;16.70;33.70
13593;BME280;6867;50.998;4.250;2023-04-26T11:08:25;100862.72;;;16.77;34.63
13593;BME280;6867;50.998;4.250;2023-04-26T11:11:05;100958.59;;;17.33;35.69
13593;BME280;6867;50.998;4.250;2023-04-26T11:13:34;100870.53;;;17.46;33.92
13593;BME280;6867;50.998;4.250;2023-04-26T11:16:04;100844.19;;;17.85;32.83
13593;BME280;6867;50.998;4.250;2023-04-26T11:18:31;100800.00;;;16.73;33.98
13593;BME280;6867;50.998;4.250;2023-04-26T11:20:58;100731.94;;;16.24;33.72
13593;BME280;6867;50.998;4.250;2023-04-26T11:23:27;100789.34;;;16.55;33.88
13593;BME280;6867;50.998;4.250;2023-04-26T11:25:56;100766.69;;;16.61;33.13
13593;BME280;6867;50.998;4.250;2023-04-26T11:28:23;100745.75;;;16.56;32.96
13593;BME280;6867;50.998;4.250;2023-04-26T11:30:50;100781.53;;;16.08;34.21
13593;BME280;6867;50.998;4.250;2023-04-26T11:33:19;100732.13;;;15.72;33.98
13593;BME280;6867;50.998;4.250;2023-04-26T11:35:47;100884.91;;;15.88;36.22
13593;BME280;6867;50.998;4.250;2023-04-26T11:38:15;100866.03;;;16.22;35.48
13593;BME280;6867;50.998;4.250;2023-04-26T11:40:42;100840.19;;;16.76;33.88
13593;BME280;6867;50.998;4.250;2023-04-26T11:43:09;100795.72;;;17.16;32.69
13593;BME280;6867;50.998;4.250;2023-04-26T11:45:38;100751.28;;;17.22;32.14
13593;BME280;6867;50.998;4.250;2023-04-26T11:48:06;100731.84;;;16.86;32.27
13593;BME280;6867;50.998;4.250;2023-04-26T11:50:38;100673.53;;;15.83;33.24
13593;BME280;6867;50.998;4.250;2023-04-26T11:53:07;100758.53;;;16.10;33.37
13593;BME280;6867;50.998;4.250;2023-04-26T11:55:34;100690.94;;;15.87;32.52
13593;BME280;6867;50.998;4.250;2023-04-26T11:58:08;100771.78;;;16.24;33.62
13593;BME280;6867;50.998;4.250;2023-04-26T12:00:36;100754.75;;;17.17;31.73
13593;BME280;6867;50.998;4.250;2023-04-26T12:03:04;100752.31;;;16.77;32.30
13593;BME280;6867;50.998;4.250;2023-04-26T12:05:37;100655.16;;;16.18;31.20
13593;BME280;6867;50.998;4.250;2023-04-26T12:08:04;100675.72;;;16.53;31.36
13593;BME280;6867;50.998;4.250;2023-04-26T12:10:34;100799.75;;;17.13;32.63
13593;BME280;6867;50.998;4.250;2023-04-26T12:13:01;100761.09;;;16.84;32.41
13593;BME280;6867;50.998;4.250;2023-04-26T12:15:28;100860.25;;;16.47;34.44
13593;BME280;6867;50.998;4.250;2023-04-26T12:17:58;100674.03;;;16.13;32.23
13593;BME280;6867;50.998;4.250;2023-04-26T12:20:29;100776.63;;;17.28;31.90
13593;BME280;6867;50.998;4.250;2023-04-26T12:23:05;100816.66;;;18.03;31.32
13593;BME280;6867;50.998;4.250;2023-04-26T12:25:33;100804.94;;;18.62;30.68
13593;BME280;6867;50.998;4.250;2023-04-26T12:30:29;100741.06;;;19.17;28.60
13593;BME280;6867;50.998;4.250;2023-04-26T12:32:56;100706.59;;;18.06;30.05
13593;BME280;6867;50.998;4.250;2023-04-26T12:35:23;100774.84;;;18.41;30.49
13593;BME280;6867;50.998;4.250;2023-04-26T12:37:50;100791.91;;;18.32;30.45
13593;BME280;6867;50.998;4.250;2023-04-26T12:40:19;100717.81;;;18.52;29.45
13593;BME280;6867;50.998;4.250;2023-04-26T12:42:47;100834.66;;;19.06;30.54
13593;BME280;6867;50.998;4.250;2023-04-26T12:45:14;100821.97;;;19.22;30.00
13593;BME280;6867;50.998;4.250;2023-04-26T12:47:41;100856.75;;;20.35;29.24
13593;BME280;6867;50.998;4.250;2023-04-26T12:50:08;100678.91;;;20.53;26.33
13593;BME280;6867;50.998;4.250;2023-04-26T12:52:37;100665.25;;;20.38;26.32
13593;BME280;6867;50.998;4.250;2023-04-26T12:55:05;100669.84;;;20.68;25.88
13593;BME280;6867;50.998;4.250;2023-04-26T12:57:34;100697.19;;;20.53;26.59
13593;BME280;6867;50.998;4.250;2023-04-26T13:00:01;100696.03;;;20.74;26.18
13593;BME280;6867;50.998;4.250;2023-04-26T13:02:28;100696.09;;;20.08;26.95
13593;BME280;6867;50.998;4.250;2023-04-26T13:04:55;100593.28;;;19.57;26.17
13593;BME280;6867;50.998;4.250;2023-04-26T13:07:22;100621.13;;;18.76;27.66
13593;BME280;6867;50.998;4.250;2023-04-26T13:09:49;100664.38;;;19.35;27.36
13593;BME280;6867;50.998;4.250;2023-04-26T13:12:15;100648.78;;;19.10;27.37
13593;BME280;6867;50.998;4.250;2023-04-26T13:14:43;100623.72;;;18.56;27.58